sensor_id;sensor_type;location;lat;lon;timestamp;pressure;altitude;pressure_sealevel;temperature;humidity
6218;BME280;3142;48.206;11.550;2022-09-03T00:01:15;95495.94;;;18.04;56.24
6218;BME280;3142;48.206;11.550;2022-09-03T00:03:46;95496.41;;;17.96;55.80
6218;BME280;3142;48.206;11.550;2022-09-03T00:06:22;95497.63;;;17.88;56.23
6218;BME280;3142;48.206;11.550;2022-09-03T00:08:56;95498.28;;;18.00;56.50
6218;BME280;3142;48.206;11.550;2022-09-03T00:11:26;95502.31;;;18.08;56.22
6218;BME280;3142;48.206;11.550;2022-09-03T00:13:58;95500.22;;;18.10;56.14
6218;BME280;3142;48.206;11.550;2022-09-03T00:16:30;95500.38;;;17.98;56.59
6218;BME280;3142;48.206;11.550;2022-09-03T00:19:01;95502.81;;;17.78;56.88
6218;BME280;3142;48.206;11.550;2022-09-03T00:21:35;95503.94;;;17.60;57.34
6218;BME280;3142;48.206;11.550;2022-09-03T00:24:07;95510.19;;;17.71;57.41
6218;BME280;3142;48.206;11.550;2022-09-03T00:26:36;95500.69;;;17.75;57.12
6218;BME280;3142;48.206;11.550;2022-09-03T00:29:08;95506.22;;;17.73;57.43
6218;BME280;3142;48.206;11.550;2022-09-03T00:31:40;95498.13;;;17.63;57.52
6218;BME280;3142;48.206;11.550;2022-09-03T00:34:12;95491.13;;;17.52;57.48
6218;BME280;3142;48.206;11.550;2022-09-03T00:36:42;95490.81;;;17.43;57.69
6218;BME280;3142;48.206;11.550;2022-09-03T00:39:13;95491.78;;;17.37;57.91
6218;BME280;3142;48.206;11.550;2022-09-03T00:41:48;95493.56;;;17.32;58.22
6218;BME280;3142;48.206;11.550;2022-09-03T00:44:32;95496.22;;;17.32;58.56
6218;BME280;3142;48.206;11.550;2022-09-03T00:47:10;95489.13;;;17.37;58.17
6218;BME280;3142;48.206;11.550;2022-09-03T00:49:48;95478.00;;;17.35;58.69
6218;BME280;3142;48.206;11.550;2022-09-03T00:52:24;95481.69;;;17.56;57.92
6218;BME280;3142;48.206;11.550;2022-09-03T00:55:06;95485.59;;;17.54;57.96
6218;BME280;3142;48.206;11.550;2022-09-03T00:57:43;95485.63;;;17.32;58.75
6218;BME280;3142;48.206;11.550;2022-09-03T01:00:15;95481.91;;;17.28;58.79
6218;BME280;3142;48.206;11.550;2022-09-03T01:02:54;95481.81;;;17.23;58.88
6218;BME280;3142;48.206;11.550;2022-09-03T01:05:34;95487.34;;;17.21;59.09
6218;BME280;3142;48.206;11.550;2022-09-03T01:08:17;95487.56;;;17.14;59.02
6218;BME280;3142;48.206;11.550;2022-09-03T01:10:53;95493.75;;;17.25;59.12
6218;BME280;3142;48.206;11.550;2022-09-03T01:13:27;95496.88;;;17.44;59.07
6218;BME280;3142;48.206;11.550;2022-09-03T01:16:05;95504.88;;;17.49;58.23
6218;BME280;3142;48.206;11.550;2022-09-03T01:18:40;95495.75;;;17.40;58.85
6218;BME280;3142;48.206;11.550;2022-09-03T01:21:31;95490.53;;;17.23;58.71
6218;BME280;3142;48.206;11.550;2022-09-03T01:24:17;95492.09;;;17.19;58.84
6218;BME280;3142;48.206;11.550;2022-09-03T01:27:08;95492.22;;;17.07;59.55
6218;BME280;3142;48.206;11.550;2022-09-03T01:29:46;95488.22;;;17.05;59.81
6218;BME280;3142;48.206;11.550;2022-09-03T01:32:21;95482.38;;;17.03;60.08
6218;BME280;3142;48.206;11.550;2022-09-03T01:34:58;95482.75;;;16.90;60.40
6218;BME280;3142;48.206;11.550;2022-09-03T01:37:33;95489.88;;;16.89;60.71
6218;BME280;3142;48.206;11.550;2022-09-03T01:40:10;95487.78;;;17.13;60.51
6218;BME280;3142;48.206;11.550;2022-09-03T01:42:49;95489.81;;;17.28;59.70
6218;BME280;3142;48.206;11.550;2022-09-03T01:45:36;95489.56;;;17.07;60.21
6218;BME280;3142;48.206;11.550;2022-09-03T01:48:17;95488.38;;;16.98;60.30
6218;BME280;3142;48.206;11.550;2022-09-03T01:50:49;95494.91;;;16.91;60.59
6218;BME280;3142;48.206;11.550;2022-09-03T01:53:30;95488.28;;;16.88;60.78
6218;BME280;3142;48.206;11.550;2022-09-03T01:56:14;95487.03;;;16.74;61.14
6218;BME280;3142;48.206;11.550;2022-09-03T01:58:45;95486.13;;;16.68;61.17
6218;BME280;3142;48.206;11.550;2022-09-03T02:01:20;95490.47;;;16.74;61.29
6218;BME280;3142;48.206;11.550;2022-09-03T02:03:48;95490.63;;;16.68;61.61
6218;BME280;3142;48.206;11.550;2022-09-03T02:06:15;95484.38;;;16.74;61.62
6218;BME280;3142;48.206;11.550;2022-09-03T02:08:45;95475.97;;;16.60;62.02
6218;BME280;3142;48.206;11.550;2022-09-03T02:11:11;95478.53;;;16.55;62.31
6218;BME280;3142;48.206;11.550;2022-09-03T02:13:40;95474.91;;;16.61;62.11
6218;BME280;3142;48.206;11.550;2022-09-03T02:16:10;95478.75;;;16.70;61.94
6218;BME280;3142;48.206;11.550;2022-09-03T02:18:41;95472.28;;;16.61;62.33
6218;BME280;3142;48.206;11.550;2022-09-03T02:21:12;95469.41;;;16.63;62.41
6218;BME280;3142;48.206;11.550;2022-09-03T02:23:40;95465.94;;;16.62;62.58
6218;BME280;3142;48.206;11.550;2022-09-03T02:26:08;95474.28;;;16.54;62.62
6218;BME280;3142;48.206;11.550;2022-09-03T02:28:36;95472.88;;;16.46;62.98
6218;BME280;3142;48.206;11.550;2022-09-03T02:31:03;95474.53;;;16.36;63.13
6218;BME280;3142;48.206;11.550;2022-09-03T02:33:30;95479.97;;;16.29;63.56
6218;BME280;3142;48.206;11.550;2022-09-03T02:35:58;95477.91;;;16.48;62.97
6218;BME280;3142;48.206;11.550;2022-09-03T02:38:25;95480.75;;;16.63;62.30
6218;BME280;3142;48.206;11.550;2022-09-03T02:40:52;95487.72;;;16.52;62.74
6218;BME280;3142;48.206;11.550;2022-09-03T02:43:24;95495.03;;;16.45;62.78
6218;BME280;3142;48.206;11.550;2022-09-03T02:45:54;95486.06;;;16.46;63.07
6218;BME280;3142;48.206;11.550;2022-09-03T02:48:23;95486.72;;;16.37;63.16
6218;BME280;3142;48.206;11.550;2022-09-03T02:50:50;95484.78;;;16.49;62.92
6218;BME280;3142;48.206;11.550;2022-09-03T02:53:18;95486.94;;;16.52;62.50
6218;BME280;3142;48.206;11.550;2022-09-03T02:55:44;95489.34;;;16.37;63.08
6218;BME280;3142;48.206;11.550;2022-09-03T02:58:11;95485.19;;;16.24;63.65
6218;BME280;3142;48.206;11.550;2022-09-03T03:00:37;95477.09;;;16.30;63.59
6218;BME280;3142;48.206;11.550;2022-09-03T03:03:04;95478.94;;;16.30;63.51
6218;BME280;3142;48.206;11.550;2022-09-03T03:05:38;95471.25;;;16.28;63.74
6218;BME280;3142;48.206;11.550;2022-09-03T03:08:07;95470.53;;;16.16;64.21
6218;BME280;3142;48.206;11.550;2022-09-03T03:10:35;95472.88;;;16.13;63.98
6218;BME280;3142;48.206;11.550;2022-09-03T03:13:02;95472.78;;;16.08;64.36
6218;BME280;3142;48.206;11.550;2022-09-03T03:15:29;95476.13;;;16.03;64.37
6218;BME280;3142;48.206;11.550;2022-09-03T03:17:55;95475.97;;;15.93;64.76
6218;BME280;3142;48.206;11.550;2022-09-03T03:20:22;95484.28;;;15.85;64.72
6218;BME280;3142;48.206;11.550;2022-09-03T03:22:48;95493.16;;;15.79;65.63
6218;BME280;3142;48.206;11.550;2022-09-03T03:25:15;95487.31;;;15.77;65.56
6218;BME280;3142;48.206;11.550;2022-09-03T03:27:42;95485.78;;;15.81;65.82
6218;BME280;3142;48.206;11.550;2022-09-03T03:30:10;95474.84;;;15.89;65.22
6218;BME280;3142;48.206;11.550;2022-09-03T03:32:37;95478.19;;;15.84;65.23
6218;BME280;3142;48.206;11.550;2022-09-03T03:35:05;95476.97;;;15.75;65.81
6218;BME280;3142;48.206;11.550;2022-09-03T03:37:32;95478.25;;;15.73;65.92
6218;BME280;3142;48.206;11.550;2022-09-03T03:39:59;95489.72;;;15.95;65.29
6218;BME280;3142;48.206;11.550;2022-09-03T03:42:26;95485.75;;;16.09;64.74
6218;BME280;3142;48.206;11.550;2022-09-03T03:44:53;95486.53;;;15.93;65.74
6218;BME280;3142;48.206;11.550;2022-09-03T03:47:20;95485.31;;;16.00;65.20
6218;BME280;3142;48.206;11.550;2022-09-03T03:49:46;95486.69;;;16.03;65.14
6218;BME280;3142;48.206;11.550;2022-09-03T03:52:12;95487.56;;;15.92;65.13
6218;BME280;3142;48.206;11.550;2022-09-03T03:54:39;95481.56;;;15.80;65.30
6218;BME280;3142;48.206;11.550;2022-09-03T03:57:05;95485.13;;;15.74;65.91
6218;BME280;3142;48.206;11.550;2022-09-03T03:59:31;95486.41;;;15.71;66.23
6218;BME280;3142;48.206;11.550;2022-09-03T04:01:59;95479.84;;;15.74;65.93
6218;BME280;3142;48.206;11.550;2022-09-03T04:04:26;95483.81;;;15.59;66.00
6218;BME280;3142;48.206;11.550;2022-09-03T04:06:52;95474.41;;;15.63;66.45
6218;BME280;3142;48.206;11.550;2022-09-03T04:09:18;95471.09;;;15.56;66.25
6218;BME280;3142;48.206;11.550;2022-09-03T04:11:45;95477.63;;;15.54;66.40
6218;BME280;3142;48.206;11.550;2022-09-03T04:14:11;95479.72;;;15.52;67.12
6218;BME280;3142;48.206;11.550;2022-09-03T04:16:38;95476.72;;;15.48;66.89
6218;BME280;3142;48.206;11.550;2022-09-03T04:19:05;95481.13;;;15.43;67.65
6218;BME280;3142;48.206;11.550;2022-09-03T04:21:32;95476.16;;;15.46;66.96
6218;BME280;3142;48.206;11.550;2022-09-03T04:23:58;95482.91;;;15.54;67.39
6218;BME280;3142;48.206;11.550;2022-09-03T04:26:26;95486.09;;;15.56;67.19
6218;BME280;3142;48.206;11.550;2022-09-03T04:28:55;95488.19;;;15.54;66.70
6218;BME280;3142;48.206;11.550;2022-09-03T04:31:22;95495.38;;;15.58;67.11
6218;BME280;3142;48.206;11.550;2022-09-03T04:33:48;95500.41;;;15.72;66.59
6218;BME280;3142;48.206;11.550;2022-09-03T04:36:17;95492.25;;;15.73;66.72
6218;BME280;3142;48.206;11.550;2022-09-03T04:38:46;95502.97;;;15.66;67.14
6218;BME280;3142;48.206;11.550;2022-09-03T04:41:14;95508.22;;;15.66;66.81
6218;BME280;3142;48.206;11.550;2022-09-03T04:43:41;95507.22;;;15.84;66.93
6218;BME280;3142;48.206;11.550;2022-09-03T04:46:09;95510.03;;;15.94;66.55
6218;BME280;3142;48.206;11.550;2022-09-03T04:48:37;95499.81;;;15.98;66.62
6218;BME280;3142;48.206;11.550;2022-09-03T04:51:05;95511.72;;;16.00;66.84
6218;BME280;3142;48.206;11.550;2022-09-03T04:53:35;95516.00;;;16.18;65.93
6218;BME280;3142;48.206;11.550;2022-09-03T04:56:02;95516.25;;;16.34;65.21
6218;BME280;3142;48.206;11.550;2022-09-03T04:58:29;95511.69;;;16.46;65.16
6218;BME280;3142;48.206;11.550;2022-09-03T05:00:55;95512.94;;;16.60;64.71
6218;BME280;3142;48.206;11.550;2022-09-03T05:03:22;95513.81;;;16.66;64.57
6218;BME280;3142;48.206;11.550;2022-09-03T05:05:52;95529.31;;;16.74;64.33
6218;BME280;3142;48.206;11.550;2022-09-03T05:08:19;95524.31;;;16.77;64.12
6218;BME280;3142;48.206;11.550;2022-09-03T05:10:47;95522.78;;;16.65;64.44
6218;BME280;3142;48.206;11.550;2022-09-03T05:13:13;95522.72;;;16.59;64.94
6218;BME280;3142;48.206;11.550;2022-09-03T05:15:40;95528.97;;;16.70;64.45
6218;BME280;3142;48.206;11.550;2022-09-03T05:18:09;95531.44;;;16.77;64.07
6218;BME280;3142;48.206;11.550;2022-09-03T05:20:36;95526.97;;;16.61;64.55
6218;BME280;3142;48.206;11.550;2022-09-03T05:23:02;95536.31;;;16.51;64.80
6218;BME280;3142;48.206;11.550;2022-09-03T05:25:29;95538.31;;;16.44;65.34
6218;BME280;3142;48.206;11.550;2022-09-03T05:27:57;95555.03;;;16.67;64.64
6218;BME280;3142;48.206;11.550;2022-09-03T05:30:24;95555.78;;;16.79;64.13
6218;BME280;3142;48.206;11.550;2022-09-03T05:32:51;95554.34;;;16.71;64.38
6218;BME280;3142;48.206;11.550;2022-09-03T05:35:17;95561.59;;;16.64;64.97
6218;BME280;3142;48.206;11.550;2022-09-03T05:37:44;95566.28;;;16.74;64.46
6218;BME280;3142;48.206;11.550;2022-09-03T05:40:10;95569.06;;;16.67;64.60
6218;BME280;3142;48.206;11.550;2022-09-03T05:42:37;95560.56;;;16.65;64.60
6218;BME280;3142;48.206;11.550;2022-09-03T05:45:09;95556.03;;;16.77;64.64
6218;BME280;3142;48.206;11.550;2022-09-03T05:47:37;95551.06;;;16.81;64.68
6218;BME280;3142;48.206;11.550;2022-09-03T05:50:05;95551.22;;;16.91;64.29
6218;BME280;3142;48.206;11.550;2022-09-03T05:52:33;95557.50;;;17.07;63.97
6218;BME280;3142;48.206;11.550;2022-09-03T05:54:59;95563.19;;;17.15;63.26
6218;BME280;3142;48.206;11.550;2022-09-03T05:57:26;95557.78;;;17.27;63.30
6218;BME280;3142;48.206;11.550;2022-09-03T05:59:53;95563.63;;;17.29;62.90
6218;BME280;3142;48.206;11.550;2022-09-03T06:02:21;95558.63;;;17.33;63.19
6218;BME280;3142;48.206;11.550;2022-09-03T06:04:47;95559.38;;;17.28;63.24
6218;BME280;3142;48.206;11.550;2022-09-03T06:07:15;95549.47;;;17.18;63.16
6218;BME280;3142;48.206;11.550;2022-09-03T06:09:41;95558.25;;;17.02;63.54
6218;BME280;3142;48.206;11.550;2022-09-03T06:12:07;95564.81;;;17.00;63.57
6218;BME280;3142;48.206;11.550;2022-09-03T06:14:34;95566.22;;;17.07;63.44
6218;BME280;3142;48.206;11.550;2022-09-03T06:17:00;95569.38;;;17.04;63.37
6218;BME280;3142;48.206;11.550;2022-09-03T06:19:28;95566.63;;;16.99;62.90
6218;BME280;3142;48.206;11.550;2022-09-03T06:21:54;95561.75;;;17.08;63.09
6218;BME280;3142;48.206;11.550;2022-09-03T06:24:21;95561.50;;;17.09;63.00
6218;BME280;3142;48.206;11.550;2022-09-03T06:26:48;95575.03;;;17.13;63.01
6218;BME280;3142;48.206;11.550;2022-09-03T06:29:15;95563.00;;;17.22;63.18
6218;BME280;3142;48.206;11.550;2022-09-03T06:31:42;95566.88;;;17.14;62.99
6218;BME280;3142;48.206;11.550;2022-09-03T06:34:08;95570.22;;;17.10;62.93
6218;BME280;3142;48.206;11.550;2022-09-03T06:36:36;95568.81;;;17.02;63.01
6218;BME280;3142;48.206;11.550;2022-09-03T06:39:03;95574.19;;;16.91;63.11
6218;BME280;3142;48.206;11.550;2022-09-03T06:41:30;95574.59;;;16.82;63.51
6218;BME280;3142;48.206;11.550;2022-09-03T06:44:00;95577.72;;;16.79;63.94
6218;BME280;3142;48.206;11.550;2022-09-03T06:46:28;95586.50;;;16.85;63.82
6218;BME280;3142;48.206;11.550;2022-09-03T06:48:56;95583.72;;;16.92;63.53
6218;BME280;3142;48.206;11.550;2022-09-03T06:51:24;95592.34;;;17.04;63.66
6218;BME280;3142;48.206;11.550;2022-09-03T06:53:53;95603.94;;;17.20;62.87
6218;BME280;3142;48.206;11.550;2022-09-03T06:56:23;95599.50;;;17.25;62.85
6218;BME280;3142;48.206;11.550;2022-09-03T06:58:51;95601.44;;;17.30;62.81
6218;BME280;3142;48.206;11.550;2022-09-03T07:01:19;95607.03;;;17.33;63.02
6218;BME280;3142;48.206;11.550;2022-09-03T07:03:47;95607.34;;;17.37;63.23
6218;BME280;3142;48.206;11.550;2022-09-03T07:06:15;95607.03;;;17.33;63.18
6218;BME280;3142;48.206;11.550;2022-09-03T07:08:43;95597.50;;;17.32;63.37
6218;BME280;3142;48.206;11.550;2022-09-03T07:11:13;95585.34;;;17.31;63.50
6218;BME280;3142;48.206;11.550;2022-09-03T07:13:42;95587.44;;;17.29;63.90
6218;BME280;3142;48.206;11.550;2022-09-03T07:16:11;95589.53;;;17.27;64.12
6218;BME280;3142;48.206;11.550;2022-09-03T07:18:38;95588.22;;;17.30;63.92
6218;BME280;3142;48.206;11.550;2022-09-03T07:21:06;95595.81;;;17.26;64.54
6218;BME280;3142;48.206;11.550;2022-09-03T07:23:35;95603.34;;;17.34;64.32
6218;BME280;3142;48.206;11.550;2022-09-03T07:26:04;95593.75;;;17.28;64.50
6218;BME280;3142;48.206;11.550;2022-09-03T07:28:33;95593.97;;;17.27;64.58
6218;BME280;3142;48.206;11.550;2022-09-03T07:31:02;95607.69;;;17.24;64.45
6218;BME280;3142;48.206;11.550;2022-09-03T07:33:29;95610.09;;;17.25;64.45
6218;BME280;3142;48.206;11.550;2022-09-03T07:36:01;95601.59;;;17.23;64.58
6218;BME280;3142;48.206;11.550;2022-09-03T07:38:27;95605.72;;;17.14;64.73
6218;BME280;3142;48.206;11.550;2022-09-03T07:40:56;95596.34;;;17.06;65.14
6218;BME280;3142;48.206;11.550;2022-09-03T07:43:24;95605.41;;;17.10;65.31
6218;BME280;3142;48.206;11.550;2022-09-03T07:45:52;95609.47;;;17.18;65.68
6218;BME280;3142;48.206;11.550;2022-09-03T07:48:19;95609.00;;;17.21;65.24
6218;BME280;3142;48.206;11.550;2022-09-03T07:50:46;95606.34;;;17.21;65.60
6218;BME280;3142;48.206;11.550;2022-09-03T07:53:15;95608.25;;;17.26;65.30
6218;BME280;3142;48.206;11.550;2022-09-03T07:55:42;95606.34;;;17.21;65.56
6218;BME280;3142;48.206;11.550;2022-09-03T07:58:08;95604.41;;;17.33;65.89
6218;BME280;3142;48.206;11.550;2022-09-03T08:00:36;95601.69;;;17.28;65.81
6218;BME280;3142;48.206;11.550;2022-09-03T08:03:04;95601.69;;;17.28;65.99
6218;BME280;3142;48.206;11.550;2022-09-03T08:05:33;95599.16;;;17.38;66.58
6218;BME280;3142;48.206;11.550;2022-09-03T08:08:00;95596.66;;;17.48;66.57
6218;BME280;3142;48.206;11.550;2022-09-03T08:10:27;95608.69;;;17.56;66.77
6218;BME280;3142;48.206;11.550;2022-09-03T08:12:55;95610.06;;;17.64;67.00
6218;BME280;3142;48.206;11.550;2022-09-03T08:15:21;95612.47;;;17.65;67.06
6218;BME280;3142;48.206;11.550;2022-09-03T08:17:48;95617.06;;;17.70;66.73
6218;BME280;3142;48.206;11.550;2022-09-03T08:20:16;95613.19;;;17.77;67.40
6218;BME280;3142;48.206;11.550;2022-09-03T08:22:42;95613.47;;;17.81;67.01
6218;BME280;3142;48.206;11.550;2022-09-03T08:25:09;95619.44;;;17.93;67.19
6218;BME280;3142;48.206;11.550;2022-09-03T08:27:35;95618.38;;;18.16;66.12
6218;BME280;3142;48.206;11.550;2022-09-03T08:30:01;95621.69;;;18.28;65.97
6218;BME280;3142;48.206;11.550;2022-09-03T08:32:28;95615.47;;;18.18;66.39
6218;BME280;3142;48.206;11.550;2022-09-03T08:34:55;95626.69;;;18.25;65.97
6218;BME280;3142;48.206;11.550;2022-09-03T08:37:23;95619.28;;;18.27;65.56
6218;BME280;3142;48.206;11.550;2022-09-03T08:39:51;95615.09;;;18.31;65.97
6218;BME280;3142;48.206;11.550;2022-09-03T08:42:27;95617.19;;;18.29;65.27
6218;BME280;3142;48.206;11.550;2022-09-03T08:45:00;95610.84;;;18.30;65.41
6218;BME280;3142;48.206;11.550;2022-09-03T08:47:31;95610.88;;;18.35;65.79
6218;BME280;3142;48.206;11.550;2022-09-03T08:50:00;95613.13;;;18.48;65.88
6218;BME280;3142;48.206;11.550;2022-09-03T08:52:32;95608.81;;;18.64;65.47
6218;BME280;3142;48.206;11.550;2022-09-03T08:55:12;95602.50;;;19.07;64.62
6218;BME280;3142;48.206;11.550;2022-09-03T08:57:45;95603.19;;;19.35;64.39
6218;BME280;3142;48.206;11.550;2022-09-03T09:00:13;95599.66;;;19.66;63.04
6218;BME280;3142;48.206;11.550;2022-09-03T09:02:47;95590.59;;;19.57;63.87
6218;BME280;3142;48.206;11.550;2022-09-03T09:05:23;95592.19;;;19.58;63.28
6218;BME280;3142;48.206;11.550;2022-09-03T09:07:59;95591.66;;;19.56;63.69
6218;BME280;3142;48.206;11.550;2022-09-03T09:10:33;95597.28;;;19.65;63.44
6218;BME280;3142;48.206;11.550;2022-09-03T09:13:08;95591.69;;;19.61;63.72
6218;BME280;3142;48.206;11.550;2022-09-03T09:15:48;95595.63;;;19.59;64.17
6218;BME280;3142;48.206;11.550;2022-09-03T09:18:24;95593.28;;;19.67;63.87
6218;BME280;3142;48.206;11.550;2022-09-03T09:21:01;95593.59;;;19.76;63.94
6218;BME280;3142;48.206;11.550;2022-09-03T09:23:36;95590.97;;;19.86;63.58
6218;BME280;3142;48.206;11.550;2022-09-03T09:26:09;95594.19;;;19.98;63.24
6218;BME280;3142;48.206;11.550;2022-09-03T09:28:37;95575.41;;;20.15;63.30
6218;BME280;3142;48.206;11.550;2022-09-03T09:31:06;95584.16;;;20.26;62.81
6218;BME280;3142;48.206;11.550;2022-09-03T09:33:33;95578.84;;;20.41;62.82
6218;BME280;3142;48.206;11.550;2022-09-03T09:36:00;95574.13;;;20.48;62.53
6218;BME280;3142;48.206;11.550;2022-09-03T09:38:29;95582.66;;;20.70;62.64
6218;BME280;3142;48.206;11.550;2022-09-03T09:41:07;95579.16;;;20.80;62.02
6218;BME280;3142;48.206;11.550;2022-09-03T09:43:34;95577.56;;;20.89;61.46
6218;BME280;3142;48.206;11.550;2022-09-03T09:46:06;95578.63;;;20.93;60.97
6218;BME280;3142;48.206;11.550;2022-09-03T09:48:37;95574.38;;;21.03;60.31
6218;BME280;3142;48.206;11.550;2022-09-03T09:51:06;95573.78;;;21.21;60.15
6218;BME280;3142;48.206;11.550;2022-09-03T09:53:34;95567.16;;;21.39;59.62
6218;BME280;3142;48.206;11.550;2022-09-03T09:56:02;95570.25;;;21.61;58.98
6218;BME280;3142;48.206;11.550;2022-09-03T09:58:31;95580.25;;;21.95;59.04
6218;BME280;3142;48.206;11.550;2022-09-03T10:01:03;95578.34;;;22.00;59.00
6218;BME280;3142;48.206;11.550;2022-09-03T10:03:39;95579.03;;;22.60;56.58
6218;BME280;3142;48.206;11.550;2022-09-03T10:06:08;95562.47;;;23.26;54.77
6218;BME280;3142;48.206;11.550;2022-09-03T10:09:03;95569.53;;;23.65;53.41
6218;BME280;3142;48.206;11.550;2022-09-03T10:11:33;95573.38;;;23.59;53.09
6218;BME280;3142;48.206;11.550;2022-09-03T10:14:09;95566.19;;;23.30;54.62
6218;BME280;3142;48.206;11.550;2022-09-03T10:16:40;95563.25;;;23.27;54.84
6218;BME280;3142;48.206;11.550;2022-09-03T10:19:13;95565.34;;;23.06;55.53
6218;BME280;3142;48.206;11.550;2022-09-03T10:21:46;95563.94;;;23.38;54.83
6218;BME280;3142;48.206;11.550;2022-09-03T10:24:32;95566.22;;;23.49;54.50
6218;BME280;3142;48.206;11.550;2022-09-03T10:27:06;95567.88;;;23.45;53.58
6218;BME280;3142;48.206;11.550;2022-09-03T10:29:33;95565.63;;;23.28;53.70
6218;BME280;3142;48.206;11.550;2022-09-03T10:32:10;95565.22;;;23.16;53.95
6218;BME280;3142;48.206;11.550;2022-09-03T10:34:43;95569.81;;;23.11;54.48
6218;BME280;3142;48.206;11.550;2022-09-03T10:37:21;95573.50;;;23.44;53.18
6218;BME280;3142;48.206;11.550;2022-09-03T10:40:00;95571.84;;;23.48;53.43
6218;BME280;3142;48.206;11.550;2022-09-03T10:42:41;95573.03;;;23.37;53.12
6218;BME280;3142;48.206;11.550;2022-09-03T10:45:17;95568.66;;;23.22;52.70
6218;BME280;3142;48.206;11.550;2022-09-03T10:48:01;95573.06;;;23.08;53.07
6218;BME280;3142;48.206;11.550;2022-09-03T10:50:33;95559.88;;;23.16;52.88
6218;BME280;3142;48.206;11.550;2022-09-03T10:53:10;95565.63;;;23.28;52.92
6218;BME280;3142;48.206;11.550;2022-09-03T10:55:47;95562.25;;;23.47;52.20
6218;BME280;3142;48.206;11.550;2022-09-03T10:58:27;95552.88;;;24.54;50.10
6218;BME280;3142;48.206;11.550;2022-09-03T11:01:01;95552.88;;;25.00;48.39
6218;BME280;3142;48.206;11.550;2022-09-03T11:03:41;95554.91;;;24.75;48.37
6218;BME280;3142;48.206;11.550;2022-09-03T11:06:12;95556.34;;;24.54;48.79
6218;BME280;3142;48.206;11.550;2022-09-03T11:08:43;95555.63;;;24.30;49.70
6218;BME280;3142;48.206;11.550;2022-09-03T11:11:16;95556.91;;;24.84;48.78
6218;BME280;3142;48.206;11.550;2022-09-03T11:13:48;95559.97;;;24.77;48.71
6218;BME280;3142;48.206;11.550;2022-09-03T11:16:21;95547.81;;;24.33;49.04
6218;BME280;3142;48.206;11.550;2022-09-03T11:18:53;95548.81;;;24.00;49.84
6218;BME280;3142;48.206;11.550;2022-09-03T11:21:23;95536.84;;;23.73;50.54
6218;BME280;3142;48.206;11.550;2022-09-03T11:23:54;95528.47;;;23.56;51.31
6218;BME280;3142;48.206;11.550;2022-09-03T11:26:25;95527.97;;;23.54;51.36
6218;BME280;3142;48.206;11.550;2022-09-03T11:28:58;95530.06;;;23.57;51.65
6218;BME280;3142;48.206;11.550;2022-09-03T11:31:33;95538.06;;;23.57;51.65
6218;BME280;3142;48.206;11.550;2022-09-03T11:34:05;95527.69;;;23.79;51.13
6218;BME280;3142;48.206;11.550;2022-09-03T11:36:34;95529.19;;;24.23;49.73
6218;BME280;3142;48.206;11.550;2022-09-03T11:39:12;95533.41;;;24.48;49.61
6218;BME280;3142;48.206;11.550;2022-09-03T11:41:40;95538.06;;;24.42;49.79
6218;BME280;3142;48.206;11.550;2022-09-03T11:44:16;95539.19;;;24.36;49.77
6218;BME280;3142;48.206;11.550;2022-09-03T11:46:52;95537.06;;;25.17;49.23
6218;BME280;3142;48.206;11.550;2022-09-03T11:49:27;95526.53;;;25.89;48.11
6218;BME280;3142;48.206;11.550;2022-09-03T11:51:58;95514.53;;;26.37;47.47
6218;BME280;3142;48.206;11.550;2022-09-03T11:54:26;95511.50;;;26.83;45.89
6218;BME280;3142;48.206;11.550;2022-09-03T11:57:05;95513.28;;;26.88;45.54
6218;BME280;3142;48.206;11.550;2022-09-03T11:59:36;95519.13;;;26.90;45.14
6218;BME280;3142;48.206;11.550;2022-09-03T12:02:12;95514.50;;;27.04;45.25
6218;BME280;3142;48.206;11.550;2022-09-03T12:04:45;95507.53;;;27.03;45.67
6218;BME280;3142;48.206;11.550;2022-09-03T12:07:25;95508.03;;;27.05;45.45
6218;BME280;3142;48.206;11.550;2022-09-03T12:10:06;95496.78;;;27.03;45.67
6218;BME280;3142;48.206;11.550;2022-09-03T12:12:44;95494.47;;;26.88;46.23
6218;BME280;3142;48.206;11.550;2022-09-03T12:15:30;95496.19;;;26.83;45.94
6218;BME280;3142;48.206;11.550;2022-09-03T12:18:03;95501.31;;;26.71;44.75
6218;BME280;3142;48.206;11.550;2022-09-03T12:20:45;95507.78;;;26.70;44.41
6218;BME280;3142;48.206;11.550;2022-09-03T12:23:25;95504.28;;;26.61;45.17
6218;BME280;3142;48.206;11.550;2022-09-03T12:25:52;95501.38;;;26.57;46.05
6218;BME280;3142;48.206;11.550;2022-09-03T12:28:21;95490.66;;;26.57;45.37
6218;BME280;3142;48.206;11.550;2022-09-03T12:30:51;95501.13;;;26.59;44.75
6218;BME280;3142;48.206;11.550;2022-09-03T12:33:19;95499.47;;;26.49;44.35
6218;BME280;3142;48.206;11.550;2022-09-03T12:35:55;95487.38;;;26.38;44.82
6218;BME280;3142;48.206;11.550;2022-09-03T12:38:22;95497.31;;;26.38;45.22
6218;BME280;3142;48.206;11.550;2022-09-03T12:40:49;95489.44;;;26.41;45.53
6218;BME280;3142;48.206;11.550;2022-09-03T12:43:16;95491.50;;;26.44;45.88
6218;BME280;3142;48.206;11.550;2022-09-03T12:45:44;95491.03;;;26.42;46.63
6218;BME280;3142;48.206;11.550;2022-09-03T12:48:13;95490.94;;;26.47;46.74
6218;BME280;3142;48.206;11.550;2022-09-03T12:50:41;95484.69;;;26.38;46.57
6218;BME280;3142;48.206;11.550;2022-09-03T12:53:10;95490.88;;;26.25;46.29
6218;BME280;3142;48.206;11.550;2022-09-03T12:55:41;95486.44;;;26.20;46.35
6218;BME280;3142;48.206;11.550;2022-09-03T12:58:11;95479.97;;;26.21;46.15
6218;BME280;3142;48.206;11.550;2022-09-03T13:00:41;95479.50;;;26.19;46.09
6218;BME280;3142;48.206;11.550;2022-09-03T13:03:14;95483.50;;;26.31;44.76
6218;BME280;3142;48.206;11.550;2022-09-03T13:05:44;95483.00;;;26.28;45.85
6218;BME280;3142;48.206;11.550;2022-09-03T13:08:16;95475.97;;;26.33;45.96
6218;BME280;3142;48.206;11.550;2022-09-03T13:10:44;95464.34;;;26.37;47.16
6218;BME280;3142;48.206;11.550;2022-09-03T13:13:21;95466.44;;;26.26;47.15
6218;BME280;3142;48.206;11.550;2022-09-03T13:16:03;95462.16;;;26.25;46.82
6218;BME280;3142;48.206;11.550;2022-09-03T13:18:39;95464.28;;;26.15;47.21
6218;BME280;3142;48.206;11.550;2022-09-03T13:21:14;95467.28;;;26.13;47.58
6218;BME280;3142;48.206;11.550;2022-09-03T13:23:54;95469.25;;;26.21;47.57
6218;BME280;3142;48.206;11.550;2022-09-03T13:26:29;95475.16;;;26.10;47.85
6218;BME280;3142;48.206;11.550;2022-09-03T13:29:16;95477.22;;;26.13;48.65